Terminal Aerodrome Forecast
Issued by NWS Charleston, WV

Current Version | Previous Version | Graphics & Text | Print | Product List | Glossary On
Versions: 1 2 3 4 5 6 7 8 9 10 11 12 13 14 15 16 17 18 19 20 21 22 23 24 25 26
177
FTUS41 KRLX 240016 AAA
TAFPKB
TAF AMD
KPKB 240016Z 2400/2424 23007KT 5SM -SHRA OVC035
      TEMPO 2400/2403 2SM SHRA OVC025
     FM240300 22004KT P6SM OVC015
      TEMPO 2403/2405 3SM -SHRA OVC008
     FM240500 24005KT 6SM -SHRA OVC008
      TEMPO 2405/2406 4SM SHRA OVC003
     FM240600 25005KT P6SM OVC008
     FM241000 29004KT P6SM BKN010
     FM241100 29004KT P6SM SCT020=

USA.gov is the U.S. government's official web portal to all federal, state and local government web resources and services.